Time;durP1;ratioP1;P1;durP2;ratioP2;P2;SDS_P1;SDS_P2;PMS_P1;PMS_P2;Temp;Humidity;BMP_temperature;BMP_pressure;BME280_temperature;BME280_humidity;BME280_pressure;Samples;Min_cycle;Max_cycle;Signal;HPM_P1;HPM_P2
2022/06/20 00:00:36;;;;;;;2.05;1.85;;;;;;;;;;5076603;28;20217;-79
2022/06/20 00:03:03;;;;;;;2.42;1.90;;;;;;;;;;5075815;28;20196;-78
2022/06/20 00:05:36;;;;;;;2.25;1.50;;;;;;;;;;5076197;28;20224;-78
2022/06/20 00:08:04;;;;;;;2.63;1.88;;;;;;;;;;5076597;28;20227;-79
2022/06/20 00:10:33;;;;;;;2.65;2.30;;;;;;;;;;5075931;28;20772;-78
2022/06/20 00:13:02;;;;;;;1.85;1.50;;;;;;;;;;5075508;28;20295;-81
2022/06/20 00:15:33;;;;;;;2.13;1.70;;;;;;;;;;5075990;28;20291;-78
2022/06/20 00:18:03;;;;;;;2.30;2.15;;;;;;;;;;5075757;28;20684;-78
2022/06/20 00:20:31;;;;;;;3.03;2.03;;;;;;;;;;5076925;28;20227;-79
2022/06/20 00:22:59;;;;;;;3.00;2.72;;;;;;;;;;5075487;28;20418;-78
2022/06/20 00:25:27;;;;;;;2.75;1.70;;;;;;;;;;5076233;28;20243;-78
2022/06/20 00:27:57;;;;;;;2.30;2.10;;;;;;;;;;5075753;28;20287;-78
2022/06/20 00:30:25;;;;;;;2.13;1.92;;;;;;;;;;5076177;28;20221;-78
2022/06/20 00:32:53;;;;;;;3.58;2.20;;;;;;;;;;5075147;28;20288;-78
2022/06/20 00:35:21;;;;;;;1.90;1.75;;;;;;;;;;5076034;28;20734;-78
2022/06/20 00:37:49;;;;;;;2.05;1.90;;;;;;;;;;5075483;28;20205;-78
2022/06/20 00:40:24;;;;;;;2.53;2.33;;;;;;;;;;5073483;28;20244;-79
2022/06/20 00:42:53;;;;;;;3.50;2.20;;;;;;;;;;5083556;28;20560;-79
2022/06/20 00:45:24;;;;;;;2.50;2.30;;;;;;;;;;5093376;28;20573;-78
2022/06/20 00:47:53;;;;;;;3.22;2.08;;;;;;;;;;5095730;28;20687;-78
2022/06/20 00:50:23;;;;;;;1.98;1.88;;;;;;;;;;5096093;28;20223;-77
2022/06/20 00:52:55;;;;;;;2.05;1.95;;;;;;;;;;5094733;28;20768;-78
2022/06/20 00:55:26;;;;;;;2.67;2.17;;;;;;;;;;5095968;28;20287;-79
2022/06/20 00:57:59;;;;;;;2.65;2.00;;;;;;;;;;5095550;28;20200;-79
2022/06/20 01:00:31;;;;;;;2.25;2.05;;;;;;;;;;5096139;28;20587;-77
2022/06/20 01:03:03;;;;;;;4.75;3.72;;;;;;;;;;5094705;28;20287;-77
2022/06/20 01:05:41;;;;;;;3.10;2.60;;;;;;;;;;5095645;28;20299;-80
2022/06/20 01:08:13;;;;;;;3.00;2.50;;;;;;;;;;5095648;28;20283;-78
2022/06/20 01:10:46;;;;;;;2.58;2.38;;;;;;;;;;5095210;28;20762;-78
2022/06/20 01:13:17;;;;;;;3.85;3.45;;;;;;;;;;5077071;28;20318;-78
2022/06/20 01:15:48;;;;;;;1.88;1.77;;;;;;;;;;5075111;28;20687;-78
2022/06/20 01:18:20;;;;;;;2.67;2.47;;;;;;;;;;5075320;28;20287;-78
2022/06/20 01:20:48;;;;;;;5.00;3.33;;;;;;;;;;5075537;28;20279;-77
2022/06/20 01:23:29;;;;;;;2.50;2.30;;;;;;;;;;5074538;28;20288;-78
2022/06/20 01:26:27;;;;;;;3.58;3.28;;;;;;;;;;5075013;28;20311;-77
2022/06/20 01:29:00;;;;;;;4.40;2.78;;;;;;;;;;5064551;28;20295;-79
2022/06/20 01:31:30;;;;;;;3.42;3.10;;;;;;;;;;5074991;28;20583;-78
2022/06/20 01:33:58;;;;;;;4.47;3.67;;;;;;;;;;5074103;28;20211;-77
2022/06/20 01:39:11;;;;;;;5.80;5.20;;;;;;;;;;5074628;28;20208;-79
2022/06/20 01:44:25;;;;;;;4.38;4.07;;;;;;;;;;5074335;28;20203;-79
2022/06/20 01:46:52;;;;;;;4.57;4.20;;;;;;;;;;5074125;28;20228;-79
2022/06/20 01:49:22;;;;;;;4.78;4.30;;;;;;;;;;5074506;28;20315;-78
2022/06/20 01:51:55;;;;;;;3.75;3.55;;;;;;;;;;5074065;28;20736;-78
2022/06/20 01:54:24;;;;;;;4.78;4.30;;;;;;;;;;5073302;28;20213;-79
2022/06/20 01:56:52;;;;;;;5.72;3.78;;;;;;;;;;5074400;28;20280;-78
2022/06/20 01:59:25;;;;;;;4.47;4.10;;;;;;;;;;5074257;28;20311;-78
2022/06/20 02:01:53;;;;;;;4.03;3.72;;;;;;;;;;5073758;28;20205;-80
2022/06/20 02:04:27;;;;;;;3.20;2.90;;;;;;;;;;5074393;28;20200;-79
2022/06/20 02:06:54;;;;;;;2.60;2.40;;;;;;;;;;5073010;28;20314;-80
2022/06/20 02:09:22;;;;;;;2.63;2.42;;;;;;;;;;5074432;28;20220;-78
2022/06/20 02:11:50;;;;;;;2.10;2.00;;;;;;;;;;5073083;28;20307;-79
2022/06/20 02:14:22;;;;;;;2.60;2.45;;;;;;;;;;5073436;28;20292;-78
2022/06/20 02:16:57;;;;;;;2.60;2.30;;;;;;;;;;5073657;28;20289;-79
2022/06/20 02:19:30;;;;;;;2.60;2.40;;;;;;;;;;5071523;28;20724;-78
2022/06/20 02:22:01;;;;;;;3.25;2.83;;;;;;;;;;5072759;28;20211;-80
2022/06/20 02:24:34;;;;;;;3.30;2.97;;;;;;;;;;5073015;28;20201;-80
2022/06/20 02:27:02;;;;;;;4.55;4.15;;;;;;;;;;5073112;28;20320;-80
2022/06/20 02:29:32;;;;;;;3.70;3.40;;;;;;;;;;5070889;28;20227;-79
2022/06/20 02:32:05;;;;;;;3.38;3.15;;;;;;;;;;5071814;28;20231;-79
2022/06/20 02:34:34;;;;;;;3.05;2.75;;;;;;;;;;5073083;28;20292;-79
2022/06/20 02:37:09;;;;;;;3.10;2.80;;;;;;;;;;5073795;28;20207;-78
2022/06/20 02:39:38;;;;;;;3.13;2.40;;;;;;;;;;5074180;28;20274;-79
2022/06/20 02:42:09;;;;;;;2.35;2.15;;;;;;;;;;5073998;28;20684;-81
2022/06/20 02:44:37;;;;;;;4.20;3.83;;;;;;;;;;5074175;28;20231;-78
2022/06/20 02:47:07;;;;;;;4.00;3.47;;;;;;;;;;5074370;28;20227;-79
2022/06/20 02:49:36;;;;;;;2.75;2.55;;;;;;;;;;5072800;28;20307;-79
2022/06/20 02:52:06;;;;;;;3.92;3.20;;;;;;;;;;5073595;28;20413;-79
2022/06/20 02:54:36;;;;;;;3.88;2.63;;;;;;;;;;5071812;28;20197;-79
2022/06/20 02:57:18;;;;;;;5.18;2.90;;;;;;;;;;5071704;28;20201;-78
2022/06/20 02:59:49;;;;;;;2.75;1.42;;;;;;;;;;5072021;28;20596;-79
2022/06/20 03:02:20;;;;;;;1.42;1.30;;;;;;;;;;5071393;28;20299;-78
2022/06/20 03:04:48;;;;;;;2.33;1.45;;;;;;;;;;5071499;28;20628;-79
2022/06/20 03:07:19;;;;;;;1.98;1.85;;;;;;;;;;5072018;28;20231;-79
2022/06/20 03:09:49;;;;;;;2.60;2.40;;;;;;;;;;5071669;28;20229;-78
2022/06/20 03:12:16;;;;;;;4.40;2.75;;;;;;;;;;5071162;28;20205;-79
2022/06/20 03:14:48;;;;;;;3.60;2.85;;;;;;;;;;5071389;28;20208;-78
2022/06/20 03:17:20;;;;;;;3.00;2.40;;;;;;;;;;5071695;28;20201;-78
2022/06/20 03:19:51;;;;;;;3.85;2.72;;;;;;;;;;5071394;28;20304;-78
2022/06/20 03:22:23;;;;;;;3.72;3.42;;;;;;;;;;5071234;28;20291;-78
2022/06/20 03:24:52;;;;;;;3.95;2.55;;;;;;;;;;5071715;28;20207;-78
2022/06/20 03:27:24;;;;;;;2.60;2.38;;;;;;;;;;5071499;28;20231;-78
2022/06/20 03:29:54;;;;;;;3.67;3.25;;;;;;;;;;5071473;28;20231;-78
2022/06/20 03:32:24;;;;;;;3.33;3.03;;;;;;;;;;5070748;28;20204;-78
2022/06/20 03:34:51;;;;;;;3.00;2.80;;;;;;;;;;5071706;28;20211;-78
2022/06/20 03:37:19;;;;;;;3.38;3.10;;;;;;;;;;5071734;28;20228;-78
2022/06/20 03:39:47;;;;;;;3.33;2.35;;;;;;;;;;5071369;28;20255;-78
2022/06/20 03:42:16;;;;;;;1.67;1.58;;;;;;;;;;5071022;28;20291;-78
2022/06/20 03:44:48;;;;;;;2.15;2.05;;;;;;;;;;5071228;28;20208;-79
2022/06/20 03:47:21;;;;;;;2.28;2.08;;;;;;;;;;5071728;28;20247;-78
2022/06/20 03:49:53;;;;;;;1.55;1.45;;;;;;;;;;5072613;28;20307;-79
2022/06/20 03:52:24;;;;;;;1.92;1.83;;;;;;;;;;5070545;28;20684;-79
2022/06/20 03:54:56;;;;;;;2.13;2.03;;;;;;;;;;5072861;28;20211;-79
2022/06/20 03:57:28;;;;;;;1.98;1.88;;;;;;;;;;5073189;28;20297;-79
2022/06/20 04:00:01;;;;;;;2.00;1.90;;;;;;;;;;5072974;28;20320;-78
2022/06/20 04:02:33;;;;;;;1.70;1.60;;;;;;;;;;5072262;28;20207;-79
2022/06/20 04:05:06;;;;;;;2.25;2.05;;;;;;;;;;5072281;28;20633;-80
2022/06/20 04:07:39;;;;;;;1.40;1.30;;;;;;;;;;5071712;28;20227;-79
2022/06/20 04:13:03;;;;;;;1.63;1.52;;;;;;;;;;5071268;28;20216;-79
2022/06/20 04:15:38;;;;;;;1.13;1.13;;;;;;;;;;5072220;28;20228;-79
2022/06/20 04:18:29;;;;;;;1.60;1.50;;;;;;;;;;5075509;28;20229;-79
2022/06/20 04:21:12;;;;;;;1.63;1.35;;;;;;;;;;5076832;28;20252;-80
2022/06/20 04:23:45;;;;;;;1.42;1.33;;;;;;;;;;5076547;28;20243;-80
2022/06/20 04:26:18;;;;;;;1.83;1.70;;;;;;;;;;5076774;28;20741;-79
2022/06/20 04:28:51;;;;;;;1.88;1.77;;;;;;;;;;5076201;28;20224;-79
2022/06/20 04:31:23;;;;;;;1.30;1.27;;;;;;;;;;5075200;28;20586;-79
2022/06/20 04:33:57;;;;;;;1.08;1.08;;;;;;;;;;5075521;28;20232;-80
2022/06/20 04:36:36;;;;;;;1.92;1.83;;;;;;;;;;5077396;28;20200;-79
2022/06/20 04:39:13;;;;;;;1.65;1.55;;;;;;;;;;5077482;28;20228;-80
2022/06/20 04:41:45;;;;;;;2.72;2.13;;;;;;;;;;5076842;28;20240;-80
2022/06/20 04:44:22;;;;;;;2.17;1.90;;;;;;;;;;5075052;28;20244;-79
2022/06/20 04:46:56;;;;;;;1.92;1.83;;;;;;;;;;5074796;28;20201;-80
2022/06/20 04:49:23;;;;;;;1.95;1.85;;;;;;;;;;5074753;28;20311;-80
2022/06/20 04:51:52;;;;;;;1.50;1.40;;;;;;;;;;5074100;28;20482;-79
2022/06/20 04:54:22;;;;;;;1.45;1.35;;;;;;;;;;5074079;28;20291;-78
2022/06/20 04:56:53;;;;;;;1.25;1.25;;;;;;;;;;5074374;28;20207;-79
2022/06/20 04:59:26;;;;;;;1.30;1.20;;;;;;;;;;5074062;28;20307;-79
2022/06/20 05:01:54;;;;;;;0.95;0.93;;;;;;;;;;5073740;28;20205;-79
2022/06/20 05:04:31;;;;;;;1.10;1.00;;;;;;;;;;5074231;28;20228;-79
2022/06/20 05:07:04;;;;;;;0.95;0.95;;;;;;;;;;5074480;28;20185;-79
2022/06/20 05:09:39;;;;;;;1.20;1.20;;;;;;;;;;5081618;22;20317;-84
2022/06/20 05:12:12;;;;;;;1.48;1.38;;;;;;;;;;5058673;28;20644;-84
2022/06/20 05:14:48;;;;;;;2.00;1.80;;;;;;;;;;5068312;28;20250;-82
2022/06/20 05:17:21;;;;;;;4.30;2.80;;;;;;;;;;5076274;28;20240;-82
2022/06/20 05:19:51;;;;;;;2.50;2.30;;;;;;;;;;5076470;28;20232;-82
2022/06/20 05:22:24;;;;;;;3.75;2.30;;;;;;;;;;5076681;28;20232;-82
2022/06/20 05:24:53;;;;;;;1.35;1.27;;;;;;;;;;5096659;22;20696;-79
2022/06/20 05:27:25;;;;;;;1.40;1.30;;;;;;;;;;5078302;28;20287;-79
2022/06/20 05:29:54;;;;;;;1.10;1.10;;;;;;;;;;5076059;28;20485;-79
2022/06/20 05:32:29;;;;;;;1.58;1.48;;;;;;;;;;5077611;28;20255;-81
2022/06/20 05:35:05;;;;;;;1.70;1.60;;;;;;;;;;5079026;28;20262;-79
2022/06/20 05:37:38;;;;;;;1.90;1.80;;;;;;;;;;5075225;28;20654;-78
2022/06/20 05:40:15;;;;;;;1.52;1.48;;;;;;;;;;5076430;28;20204;-78
2022/06/20 05:42:42;;;;;;;2.08;1.98;;;;;;;;;;5065336;28;20201;-78
2022/06/20 05:45:19;;;;;;;2.30;2.10;;;;;;;;;;5057467;28;20256;-79
2022/06/20 05:47:52;;;;;;;2.58;2.38;;;;;;;;;;5056785;28;20244;-78
2022/06/20 05:50:36;;;;;;;1.75;1.65;;;;;;;;;;5056088;28;20261;-80
2022/06/20 05:53:08;;;;;;;2.13;1.92;;;;;;;;;;5055359;28;20245;-80
2022/06/20 05:55:42;;;;;;;1.90;1.80;;;;;;;;;;5056897;28;20225;-80
2022/06/20 05:58:15;;;;;;;1.90;1.80;;;;;;;;;;5058064;28;20295;-79
2022/06/20 06:00:43;;;;;;;2.15;1.95;;;;;;;;;;5056277;28;20205;-80
2022/06/20 06:03:15;;;;;;;1.83;1.73;;;;;;;;;;5055420;28;20713;-80
2022/06/20 06:05:45;;;;;;;1.60;1.50;;;;;;;;;;5054769;28;20230;-80
2022/06/20 06:08:23;;;;;;;1.58;1.48;;;;;;;;;;5055749;28;20722;-80
2022/06/20 06:10:57;;;;;;;1.58;1.48;;;;;;;;;;5055222;28;20236;-80
2022/06/20 06:13:36;;;;;;;1.95;1.63;;;;;;;;;;5074036;28;20214;-81
2022/06/20 06:18:58;;;;;;;1.13;1.02;;;;;;;;;;5076941;28;20204;-79
2022/06/20 06:21:27;;;;;;;1.45;1.42;;;;;;;;;;5075632;28;20236;-79
2022/06/20 06:23:57;;;;;;;1.73;1.50;;;;;;;;;;5075878;28;20235;-77
2022/06/20 06:26:24;;;;;;;1.42;1.35;;;;;;;;;;5075666;28;20681;-77
2022/06/20 06:28:53;;;;;;;1.85;1.70;;;;;;;;;;5075842;28;20252;-77
2022/06/20 06:31:24;;;;;;;1.33;1.30;;;;;;;;;;5075771;28;20236;-78
2022/06/20 06:33:54;;;;;;;1.20;1.15;;;;;;;;;;5077013;28;20263;-78
2022/06/20 06:36:30;;;;;;;1.27;1.15;;;;;;;;;;5076913;28;20209;-78
2022/06/20 06:39:05;;;;;;;1.10;1.10;;;;;;;;;;5076031;28;20193;-78
2022/06/20 06:41:37;;;;;;;1.10;1.10;;;;;;;;;;5077425;28;20569;-79
2022/06/20 06:44:14;;;;;;;5.25;1.90;;;;;;;;;;5078124;28;20655;-80
2022/06/20 06:46:46;;;;;;;1.00;1.00;;;;;;;;;;5077276;28;20711;-79
2022/06/20 06:49:24;;;;;;;0.80;0.80;;;;;;;;;;5072742;28;20220;-79
2022/06/20 06:51:59;;;;;;;1.00;0.90;;;;;;;;;;5080189;28;20212;-80
2022/06/20 06:55:01;;;;;;;1.92;1.05;;;;;;;;;;5080208;28;20248;-80
2022/06/20 06:57:36;;;;;;;0.90;0.90;;;;;;;;;;5068938;28;20657;-80
2022/06/20 07:00:26;;;;;;;1.23;0.90;;;;;;;;;;5079680;28;20232;-79
2022/06/20 07:02:58;;;;;;;1.15;1.00;;;;;;;;;;5078960;28;20217;-80
2022/06/20 07:05:37;;;;;;;0.90;0.90;;;;;;;;;;5077194;28;20659;-78
2022/06/20 07:08:11;;;;;;;0.82;0.80;;;;;;;;;;5076892;28;20196;-78
2022/06/20 07:10:48;;;;;;;0.80;0.80;;;;;;;;;;5077216;28;20224;-78
2022/06/20 07:13:25;;;;;;;1.00;1.00;;;;;;;;;;5077046;28;20210;-77
2022/06/20 07:15:57;;;;;;;1.45;1.10;;;;;;;;;;5078430;28;20240;-79
2022/06/20 07:18:39;;;;;;;1.33;0.90;;;;;;;;;;5078185;28;20563;-81
2022/06/20 07:21:07;;;;;;;0.90;0.90;;;;;;;;;;5080850;28;20275;-79
2022/06/20 07:23:35;;;;;;;0.80;0.80;;;;;;;;;;5077922;28;20228;-79
2022/06/20 07:26:04;;;;;;;1.50;1.05;;;;;;;;;;5078648;28;20578;-79
2022/06/20 07:28:38;;;;;;;0.93;0.93;;;;;;;;;;5078191;28;20671;-78
2022/06/20 07:31:12;;;;;;;1.23;1.10;;;;;;;;;;5077413;28;20279;-78
2022/06/20 07:33:43;;;;;;;1.20;1.10;;;;;;;;;;5077745;28;20230;-78
2022/06/20 07:36:13;;;;;;;0.90;0.90;;;;;;;;;;5078072;28;20728;-78
2022/06/20 07:38:45;;;;;;;1.20;1.10;;;;;;;;;;5077983;28;20693;-78
2022/06/20 07:41:17;;;;;;;1.17;1.00;;;;;;;;;;5078053;28;20628;-79
2022/06/20 07:43:50;;;;;;;1.20;1.10;;;;;;;;;;5076983;28;20205;-77
2022/06/20 07:46:22;;;;;;;1.13;1.00;;;;;;;;;;5076927;28;20229;-78
2022/06/20 07:48:52;;;;;;;1.20;1.10;;;;;;;;;;5076094;28;20228;-78
2022/06/20 07:51:22;;;;;;;1.20;1.10;;;;;;;;;;5077718;28;20283;-81
2022/06/20 07:53:55;;;;;;;1.15;1.15;;;;;;;;;;5081257;28;20217;-79
2022/06/20 07:56:30;;;;;;;0.90;0.90;;;;;;;;;;5080629;28;20208;-78
2022/06/20 07:59:03;;;;;;;1.35;1.35;;;;;;;;;;5081262;28;20435;-78
2022/06/20 08:01:38;;;;;;;0.90;0.90;;;;;;;;;;5080749;28;20225;-77
2022/06/20 08:04:10;;;;;;;1.20;1.20;;;;;;;;;;5080514;28;20685;-78
2022/06/20 08:06:43;;;;;;;1.30;1.30;;;;;;;;;;5080583;28;20229;-78
2022/06/20 08:09:19;;;;;;;1.77;1.45;;;;;;;;;;5080008;28;20280;-77
2022/06/20 08:11:53;;;;;;;1.08;1.08;;;;;;;;;;5080146;28;20228;-78
2022/06/20 08:14:29;;;;;;;1.48;1.38;;;;;;;;;;5080485;28;20256;-78
2022/06/20 08:17:01;;;;;;;1.30;1.20;;;;;;;;;;5081457;28;20259;-78
2022/06/20 08:19:30;;;;;;;1.08;0.98;;;;;;;;;;5080359;28;20207;-78
2022/06/20 08:22:03;;;;;;;2.38;1.30;;;;;;;;;;5081002;28;20673;-78
2022/06/20 08:24:36;;;;;;;1.25;1.17;;;;;;;;;;5079967;28;20264;-78
2022/06/20 08:27:09;;;;;;;1.63;1.52;;;;;;;;;;5081485;28;20236;-78
2022/06/20 08:29:40;;;;;;;1.65;1.55;;;;;;;;;;5081022;28;20229;-78
2022/06/20 08:32:19;;;;;;;1.60;1.50;;;;;;;;;;5081086;28;20665;-80
2022/06/20 08:34:52;;;;;;;1.65;1.55;;;;;;;;;;5081755;28;20224;-78
2022/06/20 08:37:24;;;;;;;2.13;1.83;;;;;;;;;;5080985;28;20229;-78
2022/06/20 08:39:58;;;;;;;3.40;2.35;;;;;;;;;;5079943;28;20251;-78
2022/06/20 08:43:03;;;;;;;2.97;1.98;;;;;;;;;;5079212;28;20244;-77
2022/06/20 08:45:43;;;;;;;1.85;1.75;;;;;;;;;;5079627;28;20231;-79
2022/06/20 08:48:44;;;;;;;2.30;1.90;;;;;;;;;;5079760;28;20227;-78
2022/06/20 08:52:06;;;;;;;2.85;2.30;;;;;;;;;;5079858;28;20267;-79
2022/06/20 08:55:12;;;;;;;4.18;2.30;;;;;;;;;;5080014;28;20217;-77
2022/06/20 08:57:54;;;;;;;2.88;1.90;;;;;;;;;;5076722;28;20236;-78
2022/06/20 09:00:29;;;;;;;2.40;2.20;;;;;;;;;;5079932;28;20276;-78
2022/06/20 09:03:27;;;;;;;3.15;2.78;;;;;;;;;;5079382;28;20226;-79
2022/06/20 09:06:18;;;;;;;3.03;2.70;;;;;;;;;;5080159;28;20274;-78
2022/06/20 09:09:04;;;;;;;2.00;1.90;;;;;;;;;;5080327;28;20193;-79
2022/06/20 09:12:04;;;;;;;4.68;2.00;;;;;;;;;;5079720;28;20221;-77
2022/06/20 09:14:51;;;;;;;1.80;1.70;;;;;;;;;;5068577;28;20654;-78
2022/06/20 09:17:26;;;;;;;2.85;1.50;;;;;;;;;;5080267;28;20197;-77
2022/06/20 09:20:13;;;;;;;1.45;1.10;;;;;;;;;;5080627;28;20204;-77
2022/06/20 09:23:18;;;;;;;1.70;1.40;;;;;;;;;;5081108;28;20252;-78
2022/06/20 09:25:56;;;;;;;1.55;1.20;;;;;;;;;;5079895;28;20252;-78
2022/06/20 09:28:59;;;;;;;1.25;1.25;;;;;;;;;;5079737;28;20291;-78
2022/06/20 09:31:49;;;;;;;0.85;0.82;;;;;;;;;;5068647;28;20256;-78
2022/06/20 09:34:44;;;;;;;2.17;0.80;;;;;;;;;;5081234;28;20264;-78
2022/06/20 09:37:49;;;;;;;0.80;0.65;;;;;;;;;;5080139;28;20200;-79
2022/06/20 09:40:24;;;;;;;1.27;0.80;;;;;;;;;;5063929;28;20291;-77
2022/06/20 09:43:00;;;;;;;1.02;1.02;;;;;;;;;;5078464;28;20236;-78
2022/06/20 09:45:34;;;;;;;0.75;0.70;;;;;;;;;;5079989;28;20248;-78
2022/06/20 09:48:15;;;;;;;0.80;0.80;;;;;;;;;;5076556;28;20232;-77
2022/06/20 09:50:52;;;;;;;1.05;0.95;;;;;;;;;;5074677;28;20682;-78
2022/06/20 09:53:48;;;;;;;1.05;1.05;;;;;;;;;;5076702;28;20630;-77
2022/06/20 09:56:20;;;;;;;1.45;1.00;;;;;;;;;;5077124;28;20621;-77
2022/06/20 09:58:56;;;;;;;0.70;0.70;;;;;;;;;;5076526;28;20609;-80
2022/06/20 10:01:30;;;;;;;1.02;0.70;;;;;;;;;;5076078;28;20240;-80
2022/06/20 10:04:04;;;;;;;0.70;0.70;;;;;;;;;;5075543;28;20302;-80
2022/06/20 10:06:49;;;;;;;1.65;1.05;;;;;;;;;;5075755;28;20284;-80
2022/06/20 10:09:23;;;;;;;1.05;0.90;;;;;;;;;;5074821;28;20228;-79
2022/06/20 10:11:56;;;;;;;1.88;1.10;;;;;;;;;;5074493;28;20260;-77
2022/06/20 10:14:33;;;;;;;1.45;1.00;;;;;;;;;;5074279;28;20216;-78
2022/06/20 10:17:11;;;;;;;1.42;1.00;;;;;;;;;;5075744;28;20201;-77
2022/06/20 10:19:45;;;;;;;0.88;0.85;;;;;;;;;;5075241;28;20641;-77
2022/06/20 10:22:18;;;;;;;1.23;1.02;;;;;;;;;;5075762;28;20727;-78
2022/06/20 10:25:30;;;;;;;1.80;1.00;;;;;;;;;;5075035;28;20692;-77
2022/06/20 10:28:07;;;;;;;3.10;1.20;;;;;;;;;;5074970;28;20205;-78
2022/06/20 10:30:45;;;;;;;4.68;1.23;;;;;;;;;;5073846;28;20232;-77
2022/06/20 10:33:31;;;;;;;2.05;1.20;;;;;;;;;;5074340;28;20231;-78
2022/06/20 10:36:21;;;;;;;2.17;1.45;;;;;;;;;;5074479;28;20232;-78
2022/06/20 10:39:09;;;;;;;1.23;1.13;;;;;;;;;;5074488;28;20240;-80
2022/06/20 10:41:47;;;;;;;0.80;0.80;;;;;;;;;;5073323;28;20205;-80
2022/06/20 10:44:25;;;;;;;2.08;1.10;;;;;;;;;;5074023;28;20228;-80
2022/06/20 10:47:05;;;;;;;2.42;1.02;;;;;;;;;;5074849;28;20207;-78
2022/06/20 10:50:02;;;;;;;2.45;1.23;;;;;;;;;;5071635;28;20224;-77
2022/06/20 10:52:59;;;;;;;1.75;1.20;;;;;;;;;;5073627;28;20256;-78
2022/06/20 10:55:39;;;;;;;1.60;1.23;;;;;;;;;;5070229;28;20574;-78
2022/06/20 10:58:21;;;;;;;1.52;1.00;;;;;;;;;;5073624;28;20228;-78
2022/06/20 11:00:53;;;;;;;1.85;1.33;;;;;;;;;;5073834;28;20236;-77
2022/06/20 11:03:59;;;;;;;3.38;1.40;;;;;;;;;;5073467;28;20231;-77
2022/06/20 11:06:36;;;;;;;1.00;0.90;;;;;;;;;;5073652;28;20243;-78
2022/06/20 11:09:16;;;;;;;2.05;1.38;;;;;;;;;;5073432;28;20189;-77
2022/06/20 11:11:49;;;;;;;3.45;1.25;;;;;;;;;;5072603;28;20260;-77
2022/06/20 11:14:24;;;;;;;1.63;1.10;;;;;;;;;;5073423;28;20303;-77
2022/06/20 11:17:00;;;;;;;2.47;1.35;;;;;;;;;;5073383;28;20291;-78
2022/06/20 11:19:39;;;;;;;1.63;1.40;;;;;;;;;;5073742;28;20239;-77
2022/06/20 11:22:19;;;;;;;1.70;1.58;;;;;;;;;;5073560;28;20239;-78
2022/06/20 11:25:02;;;;;;;2.95;1.80;;;;;;;;;;5077830;22;20316;-78
2022/06/20 11:28:12;;;;;;;2.63;1.60;;;;;;;;;;5047693;28;20304;-78
2022/06/20 11:30:45;;;;;;;1.75;1.40;;;;;;;;;;5032617;28;20284;-77
2022/06/20 11:34:00;;;;;;;3.38;2.95;;;;;;;;;;5031966;28;20317;-77
2022/06/20 11:36:16;;;;;;;1.30;1.20;;;;;;;;;;5031929;28;20204;-78
2022/06/20 11:39:03;;;;;;;2.53;1.73;;;;;;;;;;5046092;22;20226;-82
2022/06/20 11:41:38;;;;;;;2.20;1.48;;;;;;;;;;5031453;28;20206;-81
2022/06/20 11:44:38;;;;;;;2.97;1.70;;;;;;;;;;5031989;28;20205;-80
2022/06/20 11:47:19;;;;;;;1.80;1.60;;;;;;;;;;5032026;28;20244;-81
2022/06/20 11:50:15;;;;;;;2.30;1.27;;;;;;;;;;5029267;28;20228;-82
2022/06/20 11:52:53;;;;;;;1.90;1.30;;;;;;;;;;5031012;28;20604;-81
2022/06/20 11:55:26;;;;;;;2.15;1.50;;;;;;;;;;5031672;28;20275;-82
2022/06/20 11:57:58;;;;;;;2.58;1.75;;;;;;;;;;5039255;28;20245;-80
2022/06/20 12:00:31;;;;;;;3.22;2.40;;;;;;;;;;5051460;28;20229;-82
2022/06/20 12:03:04;;;;;;;3.33;2.15;;;;;;;;;;5051004;28;20197;-81
2022/06/20 12:05:40;;;;;;;4.95;2.60;;;;;;;;;;5051581;28;20198;-82
2022/06/20 12:08:21;;;;;;;3.08;2.25;;;;;;;;;;5051258;28;20248;-82
2022/06/20 12:10:55;;;;;;;2.97;2.10;;;;;;;;;;5051588;28;20587;-81
2022/06/20 12:13:38;;;;;;;2.75;2.03;;;;;;;;;;5050836;28;20293;-82
2022/06/20 12:16:18;;;;;;;1.60;1.50;;;;;;;;;;5051216;28;20685;-82
2022/06/20 12:24:33;;;;;;;5.22;2.00;;;;;;;;;;5051178;28;20256;-82
2022/06/20 12:27:01;;;;;;;6.22;2.65;;;;;;;;;;5037874;28;20709;-82
2022/06/20 12:29:34;;;;;;;6.45;2.20;;;;;;;;;;5031145;28;20261;-82
2022/06/20 12:32:03;;;;;;;1.58;1.48;;;;;;;;;;5030917;28;20733;-82
2022/06/20 12:34:41;;;;;;;1.70;1.60;;;;;;;;;;5031907;28;20202;-82
2022/06/20 12:37:18;;;;;;;1.75;1.60;;;;;;;;;;5031861;28;20224;-82
2022/06/20 12:39:49;;;;;;;3.33;1.92;;;;;;;;;;5034539;28;20240;-82
2022/06/20 12:42:22;;;;;;;1.58;1.33;;;;;;;;;;5034502;28;20248;-82
2022/06/20 12:45:12;;;;;;;3.03;1.80;;;;;;;;;;5034996;28;20261;-82
2022/06/20 12:48:27;;;;;;;1.80;1.70;;;;;;;;;;5034625;28;20674;-82
2022/06/20 12:51:01;;;;;;;2.85;2.65;;;;;;;;;;5034535;28;20234;-83
2022/06/20 12:53:55;;;;;;;6.38;2.70;;;;;;;;;;5034282;28;21033;-81
2022/06/20 12:56:32;;;;;;;2.90;1.80;;;;;;;;;;5034615;28;20211;-82
2022/06/20 12:59:40;;;;;;;3.40;2.20;;;;;;;;;;5034722;28;20651;-81
2022/06/20 13:02:14;;;;;;;1.95;1.65;;;;;;;;;;5020552;28;20292;-82
2022/06/20 13:05:24;;;;;;;2.20;1.95;;;;;;;;;;5034737;28;20734;-81
2022/06/20 13:08:16;;;;;;;2.35;2.13;;;;;;;;;;5034660;28;20226;-82
2022/06/20 13:10:56;;;;;;;4.30;2.42;;;;;;;;;;5034903;28;20240;-80
2022/06/20 13:13:52;;;;;;;3.45;2.10;;;;;;;;;;5034636;28;20683;-81
2022/06/20 13:16:27;;;;;;;2.60;2.10;;;;;;;;;;5035017;28;20293;-81
2022/06/20 13:19:08;;;;;;;2.70;1.55;;;;;;;;;;5035041;28;20669;-80
2022/06/20 13:21:44;;;;;;;3.45;2.33;;;;;;;;;;5034488;28;20591;-82
2022/06/20 13:24:33;;;;;;;2.30;2.10;;;;;;;;;;5034726;28;20666;-80
2022/06/20 13:27:17;;;;;;;2.88;2.40;;;;;;;;;;5034623;28;20229;-80
2022/06/20 13:29:51;;;;;;;2.17;2.00;;;;;;;;;;5035120;28;20246;-80
2022/06/20 13:32:25;;;;;;;2.60;1.95;;;;;;;;;;5034040;28;20288;-81
2022/06/20 13:35:03;;;;;;;3.00;2.70;;;;;;;;;;5034766;28;20209;-80
2022/06/20 13:37:50;;;;;;;2.42;2.00;;;;;;;;;;5034993;28;20221;-82
2022/06/20 13:40:41;;;;;;;4.47;2.63;;;;;;;;;;5035718;28;20252;-80
2022/06/20 13:43:23;;;;;;;2.55;2.13;;;;;;;;;;5038030;28;20226;-81
2022/06/20 13:46:12;;;;;;;2.58;2.38;;;;;;;;;;5044122;28;20229;-82
2022/06/20 13:48:47;;;;;;;2.50;1.80;;;;;;;;;;5033472;28;20372;-81
2022/06/20 13:51:22;;;;;;;1.88;1.73;;;;;;;;;;5033337;28;20634;-81
2022/06/20 13:53:53;;;;;;;2.30;1.92;;;;;;;;;;5034050;28;20316;-79
2022/06/20 13:56:28;;;;;;;6.43;2.60;;;;;;;;;;5036948;28;20256;-80
2022/06/20 13:59:08;;;;;;;3.30;2.42;;;;;;;;;;5055134;28;20223;-81
2022/06/20 14:01:39;;;;;;;2.20;2.00;;;;;;;;;;5055444;28;20232;-81
2022/06/20 14:04:11;;;;;;;7.22;2.80;;;;;;;;;;5055637;28;20204;-81
2022/06/20 14:06:54;;;;;;;2.78;2.10;;;;;;;;;;5055079;28;20236;-81
2022/06/20 14:09:27;;;;;;;2.17;1.98;;;;;;;;;;5054992;28;20225;-81
2022/06/20 14:11:58;;;;;;;4.05;2.28;;;;;;;;;;5054959;28;20232;-82
2022/06/20 14:14:32;;;;;;;3.20;2.08;;;;;;;;;;5055329;28;20785;-82
2022/06/20 14:17:04;;;;;;;2.20;2.00;;;;;;;;;;5054938;28;20293;-81
2022/06/20 14:19:34;;;;;;;2.58;2.10;;;;;;;;;;5054110;28;20709;-81
2022/06/20 14:22:04;;;;;;;1.80;1.70;;;;;;;;;;5054371;28;20194;-82
2022/06/20 14:24:34;;;;;;;1.98;1.80;;;;;;;;;;5054771;28;20241;-80
2022/06/20 14:27:06;;;;;;;2.45;1.60;;;;;;;;;;5041456;28;20241;-83
2022/06/20 14:29:38;;;;;;;2.72;2.03;;;;;;;;;;5034381;28;20218;-80
2022/06/20 14:32:16;;;;;;;1.92;1.27;;;;;;;;;;5033969;28;20202;-81
2022/06/20 14:37:34;;;;;;;2.72;1.70;;;;;;;;;;5033226;28;20194;-81
2022/06/20 14:40:02;;;;;;;1.92;1.52;;;;;;;;;;5034428;28;20647;-80
2022/06/20 14:42:39;;;;;;;3.25;1.52;;;;;;;;;;5034533;28;20348;-80
2022/06/20 14:45:15;;;;;;;1.90;1.50;;;;;;;;;;5034304;28;20209;-81
2022/06/20 14:47:55;;;;;;;1.23;1.20;;;;;;;;;;5033692;28;20662;-81
2022/06/20 14:50:27;;;;;;;3.35;1.70;;;;;;;;;;5032149;28;20742;-81
2022/06/20 14:53:00;;;;;;;2.03;1.50;;;;;;;;;;5033074;28;20809;-82
2022/06/20 14:55:40;;;;;;;1.67;1.33;;;;;;;;;;5033650;28;20317;-82
2022/06/20 14:58:20;;;;;;;1.30;1.20;;;;;;;;;;5033876;28;20256;-81
2022/06/20 15:00:54;;;;;;;1.40;1.30;;;;;;;;;;5033302;28;20205;-81
2022/06/20 15:03:33;;;;;;;1.50;1.40;;;;;;;;;;5033092;28;20249;-81
2022/06/20 15:06:10;;;;;;;1.45;1.30;;;;;;;;;;5033488;28;20202;-81
2022/06/20 15:08:48;;;;;;;1.83;1.60;;;;;;;;;;5033245;28;20226;-82
2022/06/20 15:11:23;;;;;;;2.70;1.40;;;;;;;;;;5033038;28;20229;-84
2022/06/20 15:13:56;;;;;;;2.25;1.75;;;;;;;;;;5032121;28;20224;-81
2022/06/20 15:16:27;;;;;;;2.38;2.17;;;;;;;;;;5032766;28;20210;-82
2022/06/20 15:19:10;;;;;;;2.33;1.60;;;;;;;;;;5032867;28;20228;-82
2022/06/20 15:21:44;;;;;;;1.55;1.40;;;;;;;;;;5032491;28;20229;-81
2022/06/20 15:24:37;;;;;;;2.20;1.75;;;;;;;;;;5032936;28;20628;-81
2022/06/20 15:27:17;;;;;;;1.98;1.60;;;;;;;;;;5032392;28;20244;-83
2022/06/20 15:30:05;;;;;;;1.05;1.05;;;;;;;;;;5032183;28;20257;-83
2022/06/20 15:32:40;;;;;;;1.10;1.10;;;;;;;;;;5031484;28;20238;-83
2022/06/20 15:35:53;;;;;;;2.25;1.75;;;;;;;;;;5032013;28;20789;-81
2022/06/20 15:38:32;;;;;;;1.67;1.40;;;;;;;;;;5032020;28;20240;-82
2022/06/20 15:41:07;;;;;;;1.30;1.20;;;;;;;;;;5032224;28;20205;-81
2022/06/20 15:43:42;;;;;;;2.03;1.60;;;;;;;;;;5031442;28;20233;-80
2022/06/20 15:46:14;;;;;;;1.17;1.17;;;;;;;;;;5031203;28;20256;-82
2022/06/20 15:48:48;;;;;;;1.48;1.38;;;;;;;;;;5029299;28;20265;-82
2022/06/20 15:51:21;;;;;;;2.30;1.70;;;;;;;;;;5031449;28;20214;-82
2022/06/20 15:54:20;;;;;;;1.30;1.20;;;;;;;;;;5031438;28;20202;-81
2022/06/20 15:57:01;;;;;;;1.58;1.48;;;;;;;;;;5020575;28;20671;-84